sensor_id;sensor_type;location;lat;lon;timestamp;temperature;humidity
23703;DHT22;12030;50.376;8.762;2023-12-20T00:01:22;5.80;99.90
23703;DHT22;12030;50.376;8.762;2023-12-20T00:03:47;5.80;99.90
23703;DHT22;12030;50.376;8.762;2023-12-20T00:06:13;5.80;99.90
23703;DHT22;12030;50.376;8.762;2023-12-20T00:08:38;5.80;99.90
23703;DHT22;12030;50.376;8.762;2023-12-20T00:11:04;5.80;99.90
23703;DHT22;12030;50.376;8.762;2023-12-20T00:13:29;5.80;99.90
23703;DHT22;12030;50.376;8.762;2023-12-20T00:15:55;5.80;99.90
23703;DHT22;12030;50.376;8.762;2023-12-20T00:18:20;5.80;99.90
23703;DHT22;12030;50.376;8.762;2023-12-20T00:20:46;5.80;99.90
23703;DHT22;12030;50.376;8.762;2023-12-20T00:23:11;5.90;99.90
23703;DHT22;12030;50.376;8.762;2023-12-20T00:25:37;5.90;99.90
23703;DHT22;12030;50.376;8.762;2023-12-20T00:28:03;5.80;99.90
23703;DHT22;12030;50.376;8.762;2023-12-20T00:30:28;5.80;99.90
23703;DHT22;12030;50.376;8.762;2023-12-20T00:32:55;5.80;99.90
23703;DHT22;12030;50.376;8.762;2023-12-20T00:35:21;5.80;99.90
23703;DHT22;12030;50.376;8.762;2023-12-20T00:37:46;5.80;99.90
23703;DHT22;12030;50.376;8.762;2023-12-20T00:40:12;5.80;99.90
23703;DHT22;12030;50.376;8.762;2023-12-20T00:42:37;5.80;99.90
23703;DHT22;12030;50.376;8.762;2023-12-20T00:45:03;5.80;99.90
23703;DHT22;12030;50.376;8.762;2023-12-20T00:47:30;5.90;99.90
23703;DHT22;12030;50.376;8.762;2023-12-20T00:49:56;5.90;99.90
23703;DHT22;12030;50.376;8.762;2023-12-20T00:52:21;5.90;99.90
23703;DHT22;12030;50.376;8.762;2023-12-20T00:54:48;5.90;99.90
23703;DHT22;12030;50.376;8.762;2023-12-20T00:57:14;5.90;99.90
23703;DHT22;12030;50.376;8.762;2023-12-20T00:59:39;5.90;99.90
23703;DHT22;12030;50.376;8.762;2023-12-20T01:02:05;5.90;99.90
23703;DHT22;12030;50.376;8.762;2023-12-20T01:04:30;5.90;99.90
23703;DHT22;12030;50.376;8.762;2023-12-20T01:06:56;5.90;99.90
23703;DHT22;12030;50.376;8.762;2023-12-20T01:09:21;6.00;99.90
23703;DHT22;12030;50.376;8.762;2023-12-20T01:11:51;6.00;99.90
23703;DHT22;12030;50.376;8.762;2023-12-20T01:14:17;6.00;99.90
23703;DHT22;12030;50.376;8.762;2023-12-20T01:16:42;6.00;99.90
23703;DHT22;12030;50.376;8.762;2023-12-20T01:19:08;6.00;99.90
23703;DHT22;12030;50.376;8.762;2023-12-20T01:21:33;6.00;99.90
23703;DHT22;12030;50.376;8.762;2023-12-20T01:23:59;6.00;99.90
23703;DHT22;12030;50.376;8.762;2023-12-20T01:26:24;6.10;99.90
23703;DHT22;12030;50.376;8.762;2023-12-20T01:28:50;6.10;99.90
23703;DHT22;12030;50.376;8.762;2023-12-20T01:31:15;6.10;99.90
23703;DHT22;12030;50.376;8.762;2023-12-20T01:33:41;6.20;99.90
23703;DHT22;12030;50.376;8.762;2023-12-20T01:36:06;6.20;99.90
23703;DHT22;12030;50.376;8.762;2023-12-20T01:38:32;6.20;99.90
23703;DHT22;12030;50.376;8.762;2023-12-20T01:40:58;6.20;99.90
23703;DHT22;12030;50.376;8.762;2023-12-20T01:43:23;6.20;99.90
23703;DHT22;12030;50.376;8.762;2023-12-20T01:45:49;6.20;99.90
23703;DHT22;12030;50.376;8.762;2023-12-20T01:48:16;6.20;99.90
23703;DHT22;12030;50.376;8.762;2023-12-20T01:50:44;6.20;99.90
23703;DHT22;12030;50.376;8.762;2023-12-20T01:53:12;6.20;99.90
23703;DHT22;12030;50.376;8.762;2023-12-20T01:55:39;6.30;99.90
23703;DHT22;12030;50.376;8.762;2023-12-20T01:58:06;6.20;99.90
23703;DHT22;12030;50.376;8.762;2023-12-20T02:00:33;6.20;99.90
23703;DHT22;12030;50.376;8.762;2023-12-20T02:03:01;6.20;99.90
23703;DHT22;12030;50.376;8.762;2023-12-20T02:05:27;6.20;99.90
23703;DHT22;12030;50.376;8.762;2023-12-20T02:07:54;6.10;99.90
23703;DHT22;12030;50.376;8.762;2023-12-20T02:10:19;6.10;99.90
23703;DHT22;12030;50.376;8.762;2023-12-20T02:12:45;6.10;99.90
23703;DHT22;12030;50.376;8.762;2023-12-20T02:15:10;6.20;99.90
23703;DHT22;12030;50.376;8.762;2023-12-20T02:17:38;6.20;99.90
23703;DHT22;12030;50.376;8.762;2023-12-20T02:20:05;6.20;99.90
23703;DHT22;12030;50.376;8.762;2023-12-20T02:22:31;6.10;99.90
23703;DHT22;12030;50.376;8.762;2023-12-20T02:24:56;6.10;99.90
23703;DHT22;12030;50.376;8.762;2023-12-20T02:27:23;6.20;99.90
23703;DHT22;12030;50.376;8.762;2023-12-20T02:29:50;6.20;99.90
23703;DHT22;12030;50.376;8.762;2023-12-20T02:32:18;6.20;99.90
23703;DHT22;12030;50.376;8.762;2023-12-20T02:34:45;6.20;99.90
23703;DHT22;12030;50.376;8.762;2023-12-20T02:37:11;6.20;99.90
23703;DHT22;12030;50.376;8.762;2023-12-20T02:39:36;6.10;99.90
23703;DHT22;12030;50.376;8.762;2023-12-20T02:42:02;6.10;99.90
23703;DHT22;12030;50.376;8.762;2023-12-20T02:44:28;6.10;99.90
23703;DHT22;12030;50.376;8.762;2023-12-20T02:46:53;6.10;99.90
23703;DHT22;12030;50.376;8.762;2023-12-20T02:49:19;6.10;99.90
23703;DHT22;12030;50.376;8.762;2023-12-20T02:51:44;6.10;99.90
23703;DHT22;12030;50.376;8.762;2023-12-20T02:54:10;6.10;99.90
23703;DHT22;12030;50.376;8.762;2023-12-20T02:56:35;6.20;99.90
23703;DHT22;12030;50.376;8.762;2023-12-20T02:59:01;6.20;99.90
23703;DHT22;12030;50.376;8.762;2023-12-20T03:01:27;6.10;99.90
23703;DHT22;12030;50.376;8.762;2023-12-20T03:03:53;6.00;99.90
23703;DHT22;12030;50.376;8.762;2023-12-20T03:06:19;6.00;99.90
23703;DHT22;12030;50.376;8.762;2023-12-20T03:08:45;6.10;99.90
23703;DHT22;12030;50.376;8.762;2023-12-20T03:11:10;6.00;99.90
23703;DHT22;12030;50.376;8.762;2023-12-20T03:13:36;6.00;99.90
23703;DHT22;12030;50.376;8.762;2023-12-20T03:16:08;6.00;99.90
23703;DHT22;12030;50.376;8.762;2023-12-20T03:18:34;5.90;99.90
23703;DHT22;12030;50.376;8.762;2023-12-20T03:20:59;6.00;99.90
23703;DHT22;12030;50.376;8.762;2023-12-20T03:23:25;6.00;99.90
23703;DHT22;12030;50.376;8.762;2023-12-20T03:25:51;6.00;99.90
23703;DHT22;12030;50.376;8.762;2023-12-20T03:28:17;6.00;99.90
23703;DHT22;12030;50.376;8.762;2023-12-20T03:30:42;6.10;99.90
23703;DHT22;12030;50.376;8.762;2023-12-20T03:33:08;6.10;99.90
23703;DHT22;12030;50.376;8.762;2023-12-20T03:35:33;6.10;99.90
23703;DHT22;12030;50.376;8.762;2023-12-20T03:37:59;6.10;99.90
23703;DHT22;12030;50.376;8.762;2023-12-20T03:40:25;6.10;99.90
23703;DHT22;12030;50.376;8.762;2023-12-20T03:42:51;6.00;99.90
23703;DHT22;12030;50.376;8.762;2023-12-20T03:45:16;6.00;99.90
23703;DHT22;12030;50.376;8.762;2023-12-20T03:47:42;6.10;99.90
23703;DHT22;12030;50.376;8.762;2023-12-20T03:50:08;6.20;99.90
23703;DHT22;12030;50.376;8.762;2023-12-20T03:52:33;6.30;99.90
23703;DHT22;12030;50.376;8.762;2023-12-20T03:54:59;6.40;99.90
23703;DHT22;12030;50.376;8.762;2023-12-20T03:57:24;6.40;99.90
23703;DHT22;12030;50.376;8.762;2023-12-20T03:59:50;6.50;99.90
23703;DHT22;12030;50.376;8.762;2023-12-20T04:02:15;6.60;99.90
23703;DHT22;12030;50.376;8.762;2023-12-20T04:04:41;6.60;99.90
23703;DHT22;12030;50.376;8.762;2023-12-20T04:07:07;6.60;99.90
23703;DHT22;12030;50.376;8.762;2023-12-20T04:09:32;6.60;99.90
23703;DHT22;12030;50.376;8.762;2023-12-20T04:11:58;6.60;99.90
23703;DHT22;12030;50.376;8.762;2023-12-20T04:14:23;6.60;99.90
23703;DHT22;12030;50.376;8.762;2023-12-20T04:16:50;6.60;99.90
23703;DHT22;12030;50.376;8.762;2023-12-20T04:19:15;6.50;99.90
23703;DHT22;12030;50.376;8.762;2023-12-20T04:21:41;6.50;99.90
23703;DHT22;12030;50.376;8.762;2023-12-20T04:24:06;6.40;99.90
23703;DHT22;12030;50.376;8.762;2023-12-20T04:26:32;6.50;99.90
23703;DHT22;12030;50.376;8.762;2023-12-20T04:28:57;6.30;99.90
23703;DHT22;12030;50.376;8.762;2023-12-20T04:31:23;6.20;99.90
23703;DHT22;12030;50.376;8.762;2023-12-20T04:33:49;6.10;99.90
23703;DHT22;12030;50.376;8.762;2023-12-20T04:36:14;6.00;99.90
23703;DHT22;12030;50.376;8.762;2023-12-20T04:38:40;5.90;99.90
23703;DHT22;12030;50.376;8.762;2023-12-20T04:41:05;5.90;99.90
23703;DHT22;12030;50.376;8.762;2023-12-20T04:43:31;5.80;99.90
23703;DHT22;12030;50.376;8.762;2023-12-20T04:45:56;5.80;99.90
23703;DHT22;12030;50.376;8.762;2023-12-20T04:48:22;5.70;99.90
23703;DHT22;12030;50.376;8.762;2023-12-20T04:50:47;5.70;99.90
23703;DHT22;12030;50.376;8.762;2023-12-20T04:53:13;5.60;99.90
23703;DHT22;12030;50.376;8.762;2023-12-20T04:55:38;5.60;99.90
23703;DHT22;12030;50.376;8.762;2023-12-20T04:58:04;5.60;99.90
23703;DHT22;12030;50.376;8.762;2023-12-20T05:00:30;5.60;99.90
23703;DHT22;12030;50.376;8.762;2023-12-20T05:02:55;5.70;99.90
23703;DHT22;12030;50.376;8.762;2023-12-20T05:05:21;5.70;99.90
23703;DHT22;12030;50.376;8.762;2023-12-20T05:07:46;5.80;99.90
23703;DHT22;12030;50.376;8.762;2023-12-20T05:10:12;6.00;99.90
23703;DHT22;12030;50.376;8.762;2023-12-20T05:12:37;6.10;99.90
23703;DHT22;12030;50.376;8.762;2023-12-20T05:15:05;6.20;99.90
23703;DHT22;12030;50.376;8.762;2023-12-20T05:17:31;6.20;99.90
23703;DHT22;12030;50.376;8.762;2023-12-20T05:19:56;6.20;99.90
23703;DHT22;12030;50.376;8.762;2023-12-20T05:22:22;6.20;99.90
23703;DHT22;12030;50.376;8.762;2023-12-20T05:24:47;6.10;99.90
23703;DHT22;12030;50.376;8.762;2023-12-20T05:27:12;6.10;99.90
23703;DHT22;12030;50.376;8.762;2023-12-20T05:29:38;6.10;99.90
23703;DHT22;12030;50.376;8.762;2023-12-20T05:32:04;6.10;99.90
23703;DHT22;12030;50.376;8.762;2023-12-20T05:34:32;6.10;99.90
23703;DHT22;12030;50.376;8.762;2023-12-20T05:36:58;6.00;99.90
23703;DHT22;12030;50.376;8.762;2023-12-20T05:39:24;5.90;99.90
23703;DHT22;12030;50.376;8.762;2023-12-20T05:41:49;5.90;99.90
23703;DHT22;12030;50.376;8.762;2023-12-20T05:44:15;5.90;99.90
23703;DHT22;12030;50.376;8.762;2023-12-20T05:46:40;5.80;99.90
23703;DHT22;12030;50.376;8.762;2023-12-20T05:49:06;5.70;99.90
23703;DHT22;12030;50.376;8.762;2023-12-20T05:51:32;5.70;99.90
23703;DHT22;12030;50.376;8.762;2023-12-20T05:53:58;5.70;99.90
23703;DHT22;12030;50.376;8.762;2023-12-20T05:56:23;5.70;99.90
23703;DHT22;12030;50.376;8.762;2023-12-20T05:58:49;5.60;99.90
23703;DHT22;12030;50.376;8.762;2023-12-20T06:01:15;5.60;99.90
23703;DHT22;12030;50.376;8.762;2023-12-20T06:03:42;5.60;99.90
23703;DHT22;12030;50.376;8.762;2023-12-20T06:06:09;5.60;99.90
23703;DHT22;12030;50.376;8.762;2023-12-20T06:08:34;5.60;99.90
23703;DHT22;12030;50.376;8.762;2023-12-20T06:11:00;5.60;99.90
23703;DHT22;12030;50.376;8.762;2023-12-20T06:13:25;5.60;99.90
23703;DHT22;12030;50.376;8.762;2023-12-20T06:15:52;5.60;99.90
23703;DHT22;12030;50.376;8.762;2023-12-20T06:18:17;5.60;99.90
23703;DHT22;12030;50.376;8.762;2023-12-20T06:20:43;5.60;99.90
23703;DHT22;12030;50.376;8.762;2023-12-20T06:23:08;5.60;99.90
23703;DHT22;12030;50.376;8.762;2023-12-20T06:25:34;5.60;99.90
23703;DHT22;12030;50.376;8.762;2023-12-20T06:27:59;5.70;99.90
23703;DHT22;12030;50.376;8.762;2023-12-20T06:30:25;5.60;99.90
23703;DHT22;12030;50.376;8.762;2023-12-20T06:32:53;5.70;99.90
23703;DHT22;12030;50.376;8.762;2023-12-20T06:35:18;5.60;99.90
23703;DHT22;12030;50.376;8.762;2023-12-20T06:37:44;5.60;99.90
23703;DHT22;12030;50.376;8.762;2023-12-20T06:40:10;5.60;99.90
23703;DHT22;12030;50.376;8.762;2023-12-20T06:42:36;5.60;99.90
23703;DHT22;12030;50.376;8.762;2023-12-20T06:45:02;5.60;99.90
23703;DHT22;12030;50.376;8.762;2023-12-20T06:47:27;5.60;99.90
23703;DHT22;12030;50.376;8.762;2023-12-20T06:49:53;5.60;99.90
23703;DHT22;12030;50.376;8.762;2023-12-20T06:52:18;5.60;99.90
23703;DHT22;12030;50.376;8.762;2023-12-20T06:54:44;5.60;99.90
23703;DHT22;12030;50.376;8.762;2023-12-20T06:57:09;5.60;99.90
23703;DHT22;12030;50.376;8.762;2023-12-20T06:59:41;5.60;99.90
23703;DHT22;12030;50.376;8.762;2023-12-20T07:02:08;5.50;99.90
23703;DHT22;12030;50.376;8.762;2023-12-20T07:04:34;5.60;99.90
23703;DHT22;12030;50.376;8.762;2023-12-20T07:06:59;5.50;99.90
23703;DHT22;12030;50.376;8.762;2023-12-20T07:09:28;5.50;99.90
23703;DHT22;12030;50.376;8.762;2023-12-20T07:11:54;5.50;99.90
23703;DHT22;12030;50.376;8.762;2023-12-20T07:14:19;5.50;99.90
23703;DHT22;12030;50.376;8.762;2023-12-20T07:16:45;5.60;99.90
23703;DHT22;12030;50.376;8.762;2023-12-20T07:19:10;5.60;99.90
23703;DHT22;12030;50.376;8.762;2023-12-20T07:21:36;5.50;99.90
23703;DHT22;12030;50.376;8.762;2023-12-20T07:24:01;5.50;99.90
23703;DHT22;12030;50.376;8.762;2023-12-20T07:26:27;5.60;99.90
23703;DHT22;12030;50.376;8.762;2023-12-20T07:28:52;5.60;99.90
23703;DHT22;12030;50.376;8.762;2023-12-20T07:31:19;5.60;99.90
23703;DHT22;12030;50.376;8.762;2023-12-20T07:33:44;5.60;99.90
23703;DHT22;12030;50.376;8.762;2023-12-20T07:36:10;5.60;99.90
23703;DHT22;12030;50.376;8.762;2023-12-20T07:38:37;5.60;99.90
23703;DHT22;12030;50.376;8.762;2023-12-20T07:41:02;5.60;99.90
23703;DHT22;12030;50.376;8.762;2023-12-20T07:43:28;5.60;99.90
23703;DHT22;12030;50.376;8.762;2023-12-20T07:45:53;5.60;99.90
23703;DHT22;12030;50.376;8.762;2023-12-20T07:48:19;5.60;99.90
23703;DHT22;12030;50.376;8.762;2023-12-20T07:50:44;5.60;99.90
23703;DHT22;12030;50.376;8.762;2023-12-20T07:53:10;5.60;99.90
23703;DHT22;12030;50.376;8.762;2023-12-20T07:55:35;5.60;99.90
23703;DHT22;12030;50.376;8.762;2023-12-20T07:58:01;5.60;99.90
23703;DHT22;12030;50.376;8.762;2023-12-20T08:00:27;5.60;99.90
23703;DHT22;12030;50.376;8.762;2023-12-20T08:02:53;5.60;99.90
23703;DHT22;12030;50.376;8.762;2023-12-20T08:05:18;5.70;99.90
23703;DHT22;12030;50.376;8.762;2023-12-20T08:07:44;5.70;99.90
23703;DHT22;12030;50.376;8.762;2023-12-20T08:10:10;5.80;99.90
23703;DHT22;12030;50.376;8.762;2023-12-20T08:12:36;5.80;99.90
23703;DHT22;12030;50.376;8.762;2023-12-20T08:15:02;5.90;99.90
23703;DHT22;12030;50.376;8.762;2023-12-20T08:17:29;5.90;99.90
23703;DHT22;12030;50.376;8.762;2023-12-20T08:19:54;6.10;99.90
23703;DHT22;12030;50.376;8.762;2023-12-20T08:22:20;6.10;99.90
23703;DHT22;12030;50.376;8.762;2023-12-20T08:24:45;6.20;99.90
23703;DHT22;12030;50.376;8.762;2023-12-20T08:27:11;6.10;99.90
23703;DHT22;12030;50.376;8.762;2023-12-20T08:29:36;6.10;99.90
23703;DHT22;12030;50.376;8.762;2023-12-20T08:32:02;6.10;99.90
23703;DHT22;12030;50.376;8.762;2023-12-20T08:34:27;6.20;99.90
23703;DHT22;12030;50.376;8.762;2023-12-20T08:36:53;6.20;99.90
23703;DHT22;12030;50.376;8.762;2023-12-20T08:39:19;6.30;99.90
23703;DHT22;12030;50.376;8.762;2023-12-20T08:41:44;6.30;99.90
23703;DHT22;12030;50.376;8.762;2023-12-20T08:44:10;6.40;99.90
23703;DHT22;12030;50.376;8.762;2023-12-20T08:46:36;6.40;99.90
23703;DHT22;12030;50.376;8.762;2023-12-20T08:49:02;6.40;99.90
23703;DHT22;12030;50.376;8.762;2023-12-20T08:51:27;6.40;99.90
23703;DHT22;12030;50.376;8.762;2023-12-20T08:53:53;6.40;99.90
23703;DHT22;12030;50.376;8.762;2023-12-20T08:56:19;6.40;99.90
23703;DHT22;12030;50.376;8.762;2023-12-20T08:58:45;6.40;99.90
23703;DHT22;12030;50.376;8.762;2023-12-20T09:01:12;6.40;99.90
23703;DHT22;12030;50.376;8.762;2023-12-20T09:03:37;6.40;99.90
23703;DHT22;12030;50.376;8.762;2023-12-20T09:06:03;6.50;99.90
23703;DHT22;12030;50.376;8.762;2023-12-20T09:08:29;6.50;99.90
23703;DHT22;12030;50.376;8.762;2023-12-20T09:10:54;6.60;99.90
23703;DHT22;12030;50.376;8.762;2023-12-20T09:13:20;6.60;99.90
23703;DHT22;12030;50.376;8.762;2023-12-20T09:15:46;6.70;99.90
23703;DHT22;12030;50.376;8.762;2023-12-20T09:18:12;6.70;99.90
23703;DHT22;12030;50.376;8.762;2023-12-20T09:20:37;6.80;99.90
23703;DHT22;12030;50.376;8.762;2023-12-20T09:23:03;6.80;99.90
23703;DHT22;12030;50.376;8.762;2023-12-20T09:25:28;6.80;99.90
23703;DHT22;12030;50.376;8.762;2023-12-20T09:27:55;6.80;99.90
23703;DHT22;12030;50.376;8.762;2023-12-20T09:30:21;6.90;99.90
23703;DHT22;12030;50.376;8.762;2023-12-20T09:32:46;6.90;99.90
23703;DHT22;12030;50.376;8.762;2023-12-20T09:35:12;6.90;99.90
23703;DHT22;12030;50.376;8.762;2023-12-20T09:37:38;6.90;99.90
23703;DHT22;12030;50.376;8.762;2023-12-20T09:40:04;7.00;99.90
23703;DHT22;12030;50.376;8.762;2023-12-20T09:42:36;7.00;99.90
23703;DHT22;12030;50.376;8.762;2023-12-20T09:45:04;7.00;99.90
23703;DHT22;12030;50.376;8.762;2023-12-20T09:47:33;7.10;99.90
23703;DHT22;12030;50.376;8.762;2023-12-20T09:49:59;7.10;99.90
23703;DHT22;12030;50.376;8.762;2023-12-20T09:52:25;7.10;99.90
23703;DHT22;12030;50.376;8.762;2023-12-20T09:54:52;7.10;99.90
23703;DHT22;12030;50.376;8.762;2023-12-20T09:57:18;7.20;99.90
23703;DHT22;12030;50.376;8.762;2023-12-20T09:59:44;7.20;99.90
23703;DHT22;12030;50.376;8.762;2023-12-20T10:02:13;7.20;99.90
23703;DHT22;12030;50.376;8.762;2023-12-20T10:04:46;7.20;99.90
23703;DHT22;12030;50.376;8.762;2023-12-20T10:07:12;7.30;99.90
23703;DHT22;12030;50.376;8.762;2023-12-20T10:09:38;7.30;99.90
23703;DHT22;12030;50.376;8.762;2023-12-20T10:12:04;7.40;99.90
23703;DHT22;12030;50.376;8.762;2023-12-20T10:14:32;7.30;99.90
23703;DHT22;12030;50.376;8.762;2023-12-20T10:17:04;7.40;99.90
23703;DHT22;12030;50.376;8.762;2023-12-20T10:19:31;7.40;99.90
23703;DHT22;12030;50.376;8.762;2023-12-20T10:22:00;7.50;99.90
23703;DHT22;12030;50.376;8.762;2023-12-20T10:24:28;7.50;99.90
23703;DHT22;12030;50.376;8.762;2023-12-20T10:27:02;7.60;99.90
23703;DHT22;12030;50.376;8.762;2023-12-20T10:29:37;7.60;99.90
23703;DHT22;12030;50.376;8.762;2023-12-20T10:32:26;7.60;99.90
23703;DHT22;12030;50.376;8.762;2023-12-20T10:34:53;7.60;99.90
23703;DHT22;12030;50.376;8.762;2023-12-20T10:37:19;7.60;99.90
23703;DHT22;12030;50.376;8.762;2023-12-20T10:39:50;7.60;99.90
23703;DHT22;12030;50.376;8.762;2023-12-20T10:42:16;7.70;99.90
23703;DHT22;12030;50.376;8.762;2023-12-20T10:44:42;7.70;99.90
23703;DHT22;12030;50.376;8.762;2023-12-20T10:47:09;7.70;99.90
23703;DHT22;12030;50.376;8.762;2023-12-20T10:49:37;7.80;99.90
23703;DHT22;12030;50.376;8.762;2023-12-20T10:52:05;7.90;99.90
23703;DHT22;12030;50.376;8.762;2023-12-20T10:54:32;8.00;99.90
23703;DHT22;12030;50.376;8.762;2023-12-20T10:56:58;8.00;99.90
23703;DHT22;12030;50.376;8.762;2023-12-20T10:59:25;8.00;99.90
23703;DHT22;12030;50.376;8.762;2023-12-20T11:01:54;7.90;99.90
23703;DHT22;12030;50.376;8.762;2023-12-20T11:04:31;8.00;99.90
23703;DHT22;12030;50.376;8.762;2023-12-20T11:07:08;7.90;99.90
23703;DHT22;12030;50.376;8.762;2023-12-20T11:09:54;7.90;99.90
23703;DHT22;12030;50.376;8.762;2023-12-20T11:12:32;7.90;99.90
23703;DHT22;12030;50.376;8.762;2023-12-20T11:15:02;8.00;99.90
23703;DHT22;12030;50.376;8.762;2023-12-20T11:17:31;7.90;99.90
23703;DHT22;12030;50.376;8.762;2023-12-20T11:22:26;8.00;99.90
23703;DHT22;12030;50.376;8.762;2023-12-20T11:24:53;8.00;99.90
23703;DHT22;12030;50.376;8.762;2023-12-20T11:27:19;8.00;99.90
23703;DHT22;12030;50.376;8.762;2023-12-20T11:29:56;7.90;99.90
23703;DHT22;12030;50.376;8.762;2023-12-20T11:34:51;7.90;99.90
23703;DHT22;12030;50.376;8.762;2023-12-20T11:37:19;7.90;99.90
23703;DHT22;12030;50.376;8.762;2023-12-20T11:39:45;7.90;99.90
23703;DHT22;12030;50.376;8.762;2023-12-20T11:42:10;7.90;99.90
23703;DHT22;12030;50.376;8.762;2023-12-20T11:44:37;7.90;99.90
23703;DHT22;12030;50.376;8.762;2023-12-20T11:47:03;7.90;99.90
23703;DHT22;12030;50.376;8.762;2023-12-20T11:49:29;7.90;99.90
23703;DHT22;12030;50.376;8.762;2023-12-20T11:51:56;7.90;99.90
23703;DHT22;12030;50.376;8.762;2023-12-20T11:54:22;8.00;99.90
23703;DHT22;12030;50.376;8.762;2023-12-20T11:56:48;8.00;99.90
23703;DHT22;12030;50.376;8.762;2023-12-20T11:59:13;8.00;99.90
23703;DHT22;12030;50.376;8.762;2023-12-20T12:01:39;7.90;99.90
23703;DHT22;12030;50.376;8.762;2023-12-20T12:04:05;7.90;99.90
23703;DHT22;12030;50.376;8.762;2023-12-20T12:06:31;7.90;99.90
23703;DHT22;12030;50.376;8.762;2023-12-20T12:08:57;7.80;99.90
23703;DHT22;12030;50.376;8.762;2023-12-20T12:11:23;7.80;99.90
23703;DHT22;12030;50.376;8.762;2023-12-20T12:13:49;7.70;99.90
23703;DHT22;12030;50.376;8.762;2023-12-20T12:16:20;7.70;99.90
23703;DHT22;12030;50.376;8.762;2023-12-20T12:18:54;7.60;99.90
23703;DHT22;12030;50.376;8.762;2023-12-20T12:21:20;7.60;99.90
23703;DHT22;12030;50.376;8.762;2023-12-20T12:23:48;7.60;99.90
23703;DHT22;12030;50.376;8.762;2023-12-20T12:26:14;7.60;99.90
23703;DHT22;12030;50.376;8.762;2023-12-20T12:28:43;7.50;99.90
23703;DHT22;12030;50.376;8.762;2023-12-20T12:31:09;7.50;99.90
23703;DHT22;12030;50.376;8.762;2023-12-20T12:33:38;7.50;99.90
23703;DHT22;12030;50.376;8.762;2023-12-20T12:36:04;7.50;99.90
23703;DHT22;12030;50.376;8.762;2023-12-20T12:38:32;7.40;99.90
23703;DHT22;12030;50.376;8.762;2023-12-20T12:40:58;7.40;99.90
23703;DHT22;12030;50.376;8.762;2023-12-20T12:43:24;7.40;99.90
23703;DHT22;12030;50.376;8.762;2023-12-20T12:45:49;7.30;99.90
23703;DHT22;12030;50.376;8.762;2023-12-20T12:48:15;7.30;99.90
23703;DHT22;12030;50.376;8.762;2023-12-20T12:50:40;7.30;99.90
23703;DHT22;12030;50.376;8.762;2023-12-20T12:53:06;7.40;99.90
23703;DHT22;12030;50.376;8.762;2023-12-20T12:55:32;7.30;99.90
23703;DHT22;12030;50.376;8.762;2023-12-20T12:57:58;7.30;99.90
23703;DHT22;12030;50.376;8.762;2023-12-20T13:00:23;7.30;99.90
23703;DHT22;12030;50.376;8.762;2023-12-20T13:02:50;7.40;99.90
23703;DHT22;12030;50.376;8.762;2023-12-20T13:05:15;7.50;99.90
23703;DHT22;12030;50.376;8.762;2023-12-20T13:07:41;7.60;99.90
23703;DHT22;12030;50.376;8.762;2023-12-20T13:10:10;7.70;99.90
23703;DHT22;12030;50.376;8.762;2023-12-20T13:12:36;7.80;99.90
23703;DHT22;12030;50.376;8.762;2023-12-20T13:15:01;7.70;99.90
23703;DHT22;12030;50.376;8.762;2023-12-20T13:17:29;7.70;99.90
23703;DHT22;12030;50.376;8.762;2023-12-20T13:19:54;7.60;99.90
23703;DHT22;12030;50.376;8.762;2023-12-20T13:22:20;7.70;99.90
23703;DHT22;12030;50.376;8.762;2023-12-20T13:24:45;7.60;99.90
23703;DHT22;12030;50.376;8.762;2023-12-20T13:27:11;7.60;99.90
23703;DHT22;12030;50.376;8.762;2023-12-20T13:29:37;7.60;99.90
23703;DHT22;12030;50.376;8.762;2023-12-20T13:32:02;7.60;99.90
23703;DHT22;12030;50.376;8.762;2023-12-20T13:34:29;7.60;99.90
23703;DHT22;12030;50.376;8.762;2023-12-20T13:36:54;7.60;99.90
23703;DHT22;12030;50.376;8.762;2023-12-20T13:39:20;7.60;99.90
23703;DHT22;12030;50.376;8.762;2023-12-20T13:41:46;7.60;99.90
23703;DHT22;12030;50.376;8.762;2023-12-20T13:44:12;7.50;99.90
23703;DHT22;12030;50.376;8.762;2023-12-20T13:46:38;7.60;99.90
23703;DHT22;12030;50.376;8.762;2023-12-20T13:49:03;7.50;99.90
23703;DHT22;12030;50.376;8.762;2023-12-20T13:51:30;7.50;99.90
23703;DHT22;12030;50.376;8.762;2023-12-20T13:53:56;7.50;99.90
23703;DHT22;12030;50.376;8.762;2023-12-20T13:56:21;7.50;99.90
23703;DHT22;12030;50.376;8.762;2023-12-20T13:58:48;7.50;99.90
23703;DHT22;12030;50.376;8.762;2023-12-20T14:01:14;7.50;99.90
23703;DHT22;12030;50.376;8.762;2023-12-20T14:03:40;7.50;99.90
23703;DHT22;12030;50.376;8.762;2023-12-20T14:06:06;7.40;99.90
23703;DHT22;12030;50.376;8.762;2023-12-20T14:08:32;7.50;99.90
23703;DHT22;12030;50.376;8.762;2023-12-20T14:10:57;7.50;99.90
23703;DHT22;12030;50.376;8.762;2023-12-20T14:13:23;7.50;99.90
23703;DHT22;12030;50.376;8.762;2023-12-20T14:15:48;7.50;99.90
23703;DHT22;12030;50.376;8.762;2023-12-20T14:18:15;7.50;99.90
23703;DHT22;12030;50.376;8.762;2023-12-20T14:20:40;7.60;99.90
23703;DHT22;12030;50.376;8.762;2023-12-20T14:23:08;7.60;99.90
23703;DHT22;12030;50.376;8.762;2023-12-20T14:25:35;7.60;99.90
23703;DHT22;12030;50.376;8.762;2023-12-20T14:28:05;7.60;99.90
23703;DHT22;12030;50.376;8.762;2023-12-20T14:30:31;7.60;99.90
23703;DHT22;12030;50.376;8.762;2023-12-20T14:32:57;7.60;99.90
23703;DHT22;12030;50.376;8.762;2023-12-20T14:35:22;7.60;99.90
23703;DHT22;12030;50.376;8.762;2023-12-20T14:37:48;7.50;99.90
23703;DHT22;12030;50.376;8.762;2023-12-20T14:40:15;7.50;99.90
23703;DHT22;12030;50.376;8.762;2023-12-20T14:42:45;7.50;99.90
23703;DHT22;12030;50.376;8.762;2023-12-20T14:45:10;7.50;99.90
23703;DHT22;12030;50.376;8.762;2023-12-20T14:47:36;7.50;99.90
23703;DHT22;12030;50.376;8.762;2023-12-20T14:50:06;7.50;99.90
23703;DHT22;12030;50.376;8.762;2023-12-20T14:52:32;7.50;99.90
23703;DHT22;12030;50.376;8.762;2023-12-20T14:55:02;7.50;99.90
23703;DHT22;12030;50.376;8.762;2023-12-20T14:57:30;7.60;99.90
23703;DHT22;12030;50.376;8.762;2023-12-20T14:59:56;7.60;99.90
23703;DHT22;12030;50.376;8.762;2023-12-20T15:02:22;7.50;99.90
23703;DHT22;12030;50.376;8.762;2023-12-20T15:04:47;7.50;99.90
23703;DHT22;12030;50.376;8.762;2023-12-20T15:07:13;7.50;99.90
23703;DHT22;12030;50.376;8.762;2023-12-20T15:09:38;7.50;99.90
23703;DHT22;12030;50.376;8.762;2023-12-20T15:12:04;7.50;99.90
23703;DHT22;12030;50.376;8.762;2023-12-20T15:14:30;7.50;99.90
23703;DHT22;12030;50.376;8.762;2023-12-20T15:16:56;7.40;99.90
23703;DHT22;12030;50.376;8.762;2023-12-20T15:19:21;7.50;99.90
23703;DHT22;12030;50.376;8.762;2023-12-20T15:21:47;7.40;99.90
23703;DHT22;12030;50.376;8.762;2023-12-20T15:24:12;7.40;99.90
23703;DHT22;12030;50.376;8.762;2023-12-20T15:26:43;7.40;99.90
23703;DHT22;12030;50.376;8.762;2023-12-20T15:29:09;7.40;99.90
23703;DHT22;12030;50.376;8.762;2023-12-20T15:31:37;7.30;99.90
23703;DHT22;12030;50.376;8.762;2023-12-20T15:34:06;7.40;99.90
23703;DHT22;12030;50.376;8.762;2023-12-20T15:36:32;7.30;99.90
23703;DHT22;12030;50.376;8.762;2023-12-20T15:38:57;7.30;99.90
23703;DHT22;12030;50.376;8.762;2023-12-20T15:41:23;7.30;99.90
23703;DHT22;12030;50.376;8.762;2023-12-20T15:43:51;7.30;99.90